Time;durP1;ratioP1;P1;durP2;ratioP2;P2;SDS_P1;SDS_P2;PMS_P1;PMS_P2;Temp;Humidity;BMP_temperature;BMP_pressure;BME280_temperature;BME280_humidity;BME280_pressure;Samples;Min_cycle;Max_cycle;Signal;HPM_P1;HPM_P2
2021/11/03 00:00:47;;;;;;;2.33;2.13;;;11.00;64.60;;;;;;5054086;28;20499;-52
2021/11/03 00:03:13;;;;;;;2.37;2.17;;;11.00;63.90;;;;;;5055095;28;20434;-52
2021/11/03 00:05:44;;;;;;;2.40;2.00;;;11.10;63.80;;;;;;5054311;28;20464;-51
2021/11/03 00:08:11;;;;;;;2.70;2.50;;;11.30;63.30;;;;;;5055291;28;20423;-52
2021/11/03 00:10:41;;;;;;;3.20;2.90;;;11.40;62.50;;;;;;5054018;28;20474;-52
2021/11/03 00:13:08;;;;;;;2.63;2.43;;;11.50;62.40;;;;;;5049801;28;20549;-51
2021/11/03 00:15:33;;;;;;;2.60;2.40;;;11.50;61.80;;;;;;5054109;28;20859;-53
2021/11/03 00:17:59;;;;;;;4.23;2.60;;;11.20;62.50;;;;;;5055150;28;20435;-51
2021/11/03 00:20:24;;;;;;;2.73;2.47;;;11.00;63.50;;;;;;5052426;28;20710;-52
2021/11/03 00:22:50;;;;;;;3.67;2.03;;;10.90;63.70;;;;;;5054996;28;20242;-51
2021/11/03 00:25:15;;;;;;;2.60;2.40;;;10.70;64.20;;;;;;5054053;28;20275;-51
2021/11/03 00:27:41;;;;;;;5.47;4.03;;;10.60;65.10;;;;;;5054780;28;20196;-51
2021/11/03 00:30:07;;;;;;;7.00;4.60;;;10.40;65.80;;;;;;5054129;28;20193;-52
2021/11/03 00:32:33;;;;;;;2.37;2.07;;;10.30;66.20;;;;;;5054330;28;20192;-53
2021/11/03 00:34:58;;;;;;;4.47;2.30;;;10.40;66.20;;;;;;5054042;28;20434;-51
2021/11/03 00:37:24;;;;;;;2.07;1.87;;;10.50;65.80;;;;;;5054591;28;20199;-53
2021/11/03 00:39:49;;;;;;;2.30;2.07;;;10.90;65.10;;;;;;5053704;28;20238;-52
2021/11/03 00:42:15;;;;;;;2.17;2.00;;;11.00;64.10;;;;;;5053945;28;20246;-50
2021/11/03 00:44:40;;;;;;;2.50;2.10;;;11.20;63.60;;;;;;5054053;28;20193;-53
2021/11/03 00:47:06;;;;;;;3.60;2.13;;;11.20;62.70;;;;;;5052576;28;20213;-51
2021/11/03 00:49:32;;;;;;;1.70;1.60;;;11.00;62.70;;;;;;5054211;28;20205;-49
2021/11/03 00:51:57;;;;;;;2.57;2.07;;;11.10;62.90;;;;;;5053552;28;20220;-51
2021/11/03 00:54:23;;;;;;;2.83;2.30;;;11.10;62.80;;;;;;5054037;28;20553;-52
2021/11/03 00:56:49;;;;;;;2.60;2.37;;;11.10;63.10;;;;;;5054060;28;20188;-52
2021/11/03 00:59:15;;;;;;;2.50;2.30;;;11.10;63.30;;;;;;5054122;28;20200;-49
2021/11/03 01:01:41;;;;;;;2.30;1.90;;;10.80;63.80;;;;;;5052247;28;20820;-52
2021/11/03 01:04:07;;;;;;;4.20;2.10;;;10.80;64.70;;;;;;5053676;28;20548;-50
2021/11/03 01:06:34;;;;;;;2.07;1.87;;;10.60;64.50;;;;;;5053144;28;20546;-50
2021/11/03 01:09:01;;;;;;;2.10;1.90;;;10.60;64.80;;;;;;5054011;28;20875;-51
2021/11/03 01:11:27;;;;;;;3.13;2.10;;;10.60;66.00;;;;;;5051928;28;20529;-50
2021/11/03 01:13:53;;;;;;;3.70;2.20;;;10.50;65.00;;;;;;5048677;28;20843;-52
2021/11/03 01:16:19;;;;;;;1.70;1.60;;;10.50;65.40;;;;;;5052867;28;20427;-52
2021/11/03 01:18:45;;;;;;;2.40;2.20;;;10.30;65.30;;;;;;5053764;28;20236;-50
2021/11/03 01:21:11;;;;;;;3.50;1.73;;;10.40;65.80;;;;;;5052713;28;20496;-52
2021/11/03 01:23:36;;;;;;;2.00;1.90;;;10.30;65.70;;;;;;5053482;28;20207;-52
2021/11/03 01:26:02;;;;;;;3.80;2.30;;;10.20;66.30;;;;;;5053080;28;20556;-50
2021/11/03 01:28:28;;;;;;;2.13;1.97;;;10.20;66.30;;;;;;5053989;28;20593;-51
2021/11/03 01:30:55;;;;;;;4.03;1.90;;;10.30;66.50;;;;;;5052787;28;20694;-51
2021/11/03 01:33:21;;;;;;;2.07;1.87;;;10.30;66.20;;;;;;5053452;28;20197;-52
2021/11/03 01:35:48;;;;;;;5.93;2.20;;;10.50;66.10;;;;;;5052896;28;20443;-49
2021/11/03 01:38:14;;;;;;;2.60;1.83;;;10.40;65.70;;;;;;5053576;28;20442;-51
2021/11/03 01:40:44;;;;;;;3.63;1.97;;;10.40;65.70;;;;;;5050891;28;20437;-53
2021/11/03 01:43:16;;;;;;;3.17;1.77;;;10.50;65.50;;;;;;5053090;28;20528;-51
2021/11/03 01:45:45;;;;;;;2.00;1.80;;;10.50;65.90;;;;;;5052509;28;20459;-51
2021/11/03 01:48:11;;;;;;;1.90;1.70;;;10.60;65.70;;;;;;5053179;28;20915;-51
2021/11/03 01:51:10;;;;;;;1.53;1.43;;;10.50;65.80;;;;;;5052269;28;20497;-51
2021/11/03 01:53:37;;;;;;;2.37;1.80;;;10.50;65.70;;;;;;5021183;28;20804;-49
2021/11/03 01:56:09;;;;;;;1.70;1.60;;;10.40;66.40;;;;;;5048746;28;20442;-52
2021/11/03 01:58:58;;;;;;;1.73;1.63;;;10.20;67.80;;;;;;5052672;28;20526;-49
2021/11/03 02:01:24;;;;;;;2.40;1.77;;;10.20;67.90;;;;;;5051934;28;20482;-51
2021/11/03 02:03:51;;;;;;;2.07;1.30;;;10.20;67.80;;;;;;5052927;28;22046;-48
2021/11/03 02:06:23;;;;;;;1.90;1.63;;;10.40;67.90;;;;;;5051036;28;20906;-52
2021/11/03 02:08:50;;;;;;;2.20;2.00;;;10.50;67.70;;;;;;5052524;28;20439;-47
2021/11/03 02:11:18;;;;;;;2.33;1.57;;;10.60;67.20;;;;;;5051991;28;21110;-50
2021/11/03 02:13:45;;;;;;;2.50;1.97;;;10.50;67.30;;;;;;5047187;28;20442;-52
2021/11/03 02:16:13;;;;;;;1.87;1.70;;;10.50;67.10;;;;;;5052270;28;20419;-47
2021/11/03 02:18:39;;;;;;;1.60;1.50;;;10.60;67.30;;;;;;5052173;28;20419;-48
2021/11/03 02:21:06;;;;;;;2.80;2.27;;;10.50;67.60;;;;;;5051673;28;20431;-48
2021/11/03 02:24:01;;;;;;;2.43;1.70;;;10.50;68.00;;;;;;5052777;28;20434;-51
2021/11/03 02:26:30;;;;;;;2.13;1.97;;;10.50;67.90;;;;;;5052461;28;20480;-51
2021/11/03 02:28:57;;;;;;;2.37;2.17;;;10.60;67.60;;;;;;5052201;28;20435;-51
2021/11/03 02:31:36;;;;;;;2.27;2.07;;;10.60;67.70;;;;;;5051359;28;20961;-47
2021/11/03 02:34:06;;;;;;;2.57;1.80;;;10.60;68.00;;;;;;5050869;28;20461;-50
2021/11/03 02:36:31;;;;;;;2.13;1.97;;;10.80;67.50;;;;;;5051728;28;20430;-51
2021/11/03 02:39:04;;;;;;;1.97;1.80;;;10.70;67.40;;;;;;5051095;28;20435;-48
2021/11/03 02:41:34;;;;;;;2.27;2.07;;;10.80;67.60;;;;;;5051155;28;20802;-52
2021/11/03 02:44:13;;;;;;;1.80;1.70;;;10.90;67.50;;;;;;5052323;28;20454;-47
2021/11/03 02:46:39;;;;;;;2.33;2.00;;;10.70;67.70;;;;;;5051375;28;20915;-47
2021/11/03 02:49:06;;;;;;;3.33;2.07;;;10.50;68.30;;;;;;5052009;28;20423;-51
2021/11/03 02:51:42;;;;;;;2.00;1.90;;;10.60;68.70;;;;;;5050995;28;20549;-47
2021/11/03 02:54:16;;;;;;;2.43;2.10;;;10.60;68.30;;;;;;5051785;28;20777;-51
2021/11/03 02:56:45;;;;;;;2.00;1.90;;;10.50;68.70;;;;;;5051472;28;20450;-47
2021/11/03 02:59:12;;;;;;;3.00;2.40;;;10.20;69.70;;;;;;5051955;28;20426;-48
2021/11/03 03:01:45;;;;;;;3.87;2.33;;;10.30;70.20;;;;;;5049257;28;20934;-50
2021/11/03 03:04:36;;;;;;;4.60;2.50;;;10.50;69.80;;;;;;5051930;28;20493;-48
2021/11/03 03:07:03;;;;;;;1.93;1.83;;;10.10;70.70;;;;;;5051050;28;20454;-53
2021/11/03 03:09:29;;;;;;;2.97;1.90;;;10.00;70.70;;;;;;5051745;28;20799;-47
2021/11/03 03:11:58;;;;;;;2.57;1.90;;;10.10;71.40;;;;;;5046164;28;20467;-52
2021/11/03 03:14:27;;;;;;;3.47;1.83;;;10.30;70.80;;;;;;5051649;28;20445;-51
2021/11/03 03:16:53;;;;;;;2.70;2.20;;;10.40;70.50;;;;;;5051136;28;20427;-50
2021/11/03 03:19:19;;;;;;;2.03;1.60;;;10.50;70.00;;;;;;5051566;28;20494;-51
2021/11/03 03:21:45;;;;;;;2.60;2.40;;;10.50;69.80;;;;;;5050550;28;20423;-47
2021/11/03 03:24:13;;;;;;;2.93;2.53;;;10.50;69.80;;;;;;5051787;28;20431;-51
2021/11/03 03:26:39;;;;;;;3.30;2.77;;;10.60;70.10;;;;;;5048705;28;20188;-48
2021/11/03 03:29:06;;;;;;;6.63;2.93;;;10.50;69.90;;;;;;5051475;28;20489;-51
2021/11/03 03:31:32;;;;;;;4.40;2.57;;;10.40;70.10;;;;;;5050570;28;20479;-49
2021/11/03 03:34:01;;;;;;;2.93;1.70;;;10.50;70.00;;;;;;5051689;28;20484;-49
2021/11/03 03:36:27;;;;;;;5.10;2.00;;;10.50;69.70;;;;;;5050749;28;20957;-48
2021/11/03 03:38:53;;;;;;;3.87;2.10;;;10.40;69.80;;;;;;5051599;28;20435;-52
2021/11/03 03:41:20;;;;;;;3.93;2.40;;;10.40;70.50;;;;;;5050084;28;20422;-49
2021/11/03 03:43:46;;;;;;;3.27;1.83;;;10.50;70.00;;;;;;5051279;28;20827;-48
2021/11/03 03:46:13;;;;;;;2.73;1.87;;;10.40;70.10;;;;;;5050433;28;20415;-50
2021/11/03 03:48:39;;;;;;;2.90;2.60;;;10.40;70.70;;;;;;5051349;28;20196;-47
2021/11/03 03:51:07;;;;;;;2.77;2.07;;;10.20;70.90;;;;;;5049858;28;20888;-48
2021/11/03 03:53:33;;;;;;;6.40;1.87;;;10.20;71.10;;;;;;5049426;28;20434;-51
2021/11/03 03:55:59;;;;;;;2.37;2.10;;;10.20;71.40;;;;;;5050781;28;20517;-49
2021/11/03 03:58:24;;;;;;;2.33;2.13;;;10.10;71.60;;;;;;5051240;28;20854;-48
2021/11/03 04:00:51;;;;;;;2.00;1.80;;;10.20;71.60;;;;;;5049857;28;20200;-49
2021/11/03 04:03:18;;;;;;;3.90;2.47;;;10.20;71.60;;;;;;5051210;28;20207;-48
2021/11/03 04:05:44;;;;;;;2.33;2.13;;;10.30;71.20;;;;;;5050610;28;20829;-49
2021/11/03 04:08:14;;;;;;;5.97;3.40;;;10.30;71.40;;;;;;5051227;28;20502;-50
2021/11/03 04:10:41;;;;;;;9.37;4.83;;;10.40;71.00;;;;;;5048681;28;20513;-50
2021/11/03 04:13:07;;;;;;;3.83;2.70;;;10.50;70.50;;;;;;5045880;28;20989;-51
2021/11/03 04:15:34;;;;;;;5.23;3.00;;;10.60;70.40;;;;;;5050690;28;20522;-51
2021/11/03 04:18:00;;;;;;;2.40;2.20;;;10.70;69.40;;;;;;5060985;28;20774;-48
2021/11/03 04:20:27;;;;;;;2.40;2.20;;;10.70;69.80;;;;;;5068440;28;20552;-50
2021/11/03 04:22:53;;;;;;;2.43;2.23;;;10.90;70.50;;;;;;5070892;28;21235;-49
2021/11/03 04:25:19;;;;;;;4.27;2.33;;;10.80;68.80;;;;;;5070221;28;20499;-52
2021/11/03 04:27:45;;;;;;;2.87;2.67;;;10.90;69.00;;;;;;5070782;28;20561;-50
2021/11/03 04:30:14;;;;;;;2.50;2.13;;;11.00;68.30;;;;;;5069572;28;20434;-52
2021/11/03 04:32:39;;;;;;;3.63;2.53;;;11.00;68.30;;;;;;5070660;28;20805;-51
2021/11/03 04:35:06;;;;;;;2.30;2.10;;;11.10;68.00;;;;;;5070219;28;20433;-51
2021/11/03 04:37:32;;;;;;;4.03;2.80;;;11.00;67.70;;;;;;5073374;28;20219;-50
2021/11/03 04:39:58;;;;;;;4.63;2.53;;;10.90;68.00;;;;;;5073213;28;20506;-50
2021/11/03 04:42:23;;;;;;;2.30;2.10;;;10.80;68.60;;;;;;5074259;28;20658;-49
2021/11/03 04:44:49;;;;;;;2.30;2.10;;;10.70;69.00;;;;;;5073747;28;20188;-51
2021/11/03 04:47:14;;;;;;;2.53;2.30;;;10.80;68.90;;;;;;5072449;28;20199;-52
2021/11/03 04:49:40;;;;;;;5.37;4.20;;;10.80;68.80;;;;;;5073882;28;20199;-51
2021/11/03 04:52:06;;;;;;;6.87;3.10;;;10.80;68.90;;;;;;5054045;28;20223;-52
2021/11/03 04:54:31;;;;;;;2.43;2.23;;;10.60;68.70;;;;;;5054472;28;20673;-50
2021/11/03 04:56:57;;;;;;;4.87;4.00;;;10.70;69.40;;;;;;5052562;28;20529;-50
2021/11/03 04:59:23;;;;;;;4.47;2.67;;;10.60;70.00;;;;;;5053723;28;20185;-52
2021/11/03 05:01:49;;;;;;;3.00;2.80;;;10.60;70.10;;;;;;5053258;28;20247;-48
2021/11/03 05:04:15;;;;;;;4.67;3.30;;;10.50;70.30;;;;;;5054303;28;20427;-51
2021/11/03 05:06:42;;;;;;;7.50;2.87;;;10.60;70.30;;;;;;5053731;28;20419;-52
2021/11/03 05:09:09;;;;;;;2.93;2.63;;;10.60;69.70;;;;;;5053672;28;20197;-49
2021/11/03 05:11:35;;;;;;;6.47;2.57;;;10.60;69.70;;;;;;5050971;28;20512;-49
2021/11/03 05:14:01;;;;;;;3.23;2.80;;;10.60;69.60;;;;;;5049800;28;20427;-52
2021/11/03 05:16:28;;;;;;;3.23;2.40;;;10.50;69.80;;;;;;5053178;28;20434;-50
2021/11/03 05:18:55;;;;;;;2.43;2.23;;;10.50;70.00;;;;;;5051939;28;20481;-51
2021/11/03 05:21:21;;;;;;;2.77;2.57;;;10.40;70.60;;;;;;5052727;28;20949;-51
2021/11/03 05:23:47;;;;;;;2.80;2.60;;;10.20;71.10;;;;;;5053888;28;20451;-53
2021/11/03 05:26:25;;;;;;;3.37;2.40;;;10.10;71.60;;;;;;5053029;28;20445;-52
2021/11/03 05:28:55;;;;;;;3.83;2.30;;;10.30;71.20;;;;;;5053304;28;20850;-48
2021/11/03 05:31:22;;;;;;;2.93;2.47;;;10.30;70.80;;;;;;5052432;28;21268;-50
2021/11/03 05:33:48;;;;;;;3.70;3.27;;;10.20;71.40;;;;;;5053794;28;20419;-48
2021/11/03 05:36:17;;;;;;;6.93;2.80;;;10.20;71.70;;;;;;5052711;28;20427;-51
2021/11/03 05:38:42;;;;;;;7.23;2.57;;;10.30;71.50;;;;;;5053277;28;20268;-52
2021/11/03 05:41:08;;;;;;;3.40;2.20;;;10.40;70.80;;;;;;5050454;28;20506;-48
2021/11/03 05:43:34;;;;;;;3.00;2.57;;;10.30;70.30;;;;;;5053325;28;20192;-48
2021/11/03 05:45:59;;;;;;;5.03;2.53;;;10.40;71.00;;;;;;5051652;28;20280;-48
2021/11/03 05:48:27;;;;;;;2.57;2.37;;;10.50;70.60;;;;;;5052541;28;20796;-48
2021/11/03 05:50:53;;;;;;;2.30;2.10;;;10.70;70.10;;;;;;5051624;28;20593;-51
2021/11/03 05:53:18;;;;;;;3.83;2.17;;;10.80;69.60;;;;;;5052824;28;20427;-48
2021/11/03 05:55:45;;;;;;;1.90;1.80;;;10.40;69.40;;;;;;5052284;28;20185;-51
2021/11/03 05:58:10;;;;;;;3.20;2.07;;;10.30;70.30;;;;;;5052749;28;20209;-48
2021/11/03 06:00:38;;;;;;;2.27;2.10;;;10.00;71.20;;;;;;5051985;28;20419;-47
2021/11/03 06:03:04;;;;;;;2.50;1.90;;;10.00;71.60;;;;;;5052808;28;20200;-50
2021/11/03 06:05:30;;;;;;;4.10;2.30;;;10.00;71.30;;;;;;5052189;28;20865;-47
2021/11/03 06:08:00;;;;;;;2.30;2.10;;;10.10;71.30;;;;;;5051291;28;20415;-52
2021/11/03 06:10:32;;;;;;;2.83;2.20;;;10.20;70.80;;;;;;5051776;28;20914;-51
2021/11/03 06:12:58;;;;;;;5.90;3.20;;;10.20;70.80;;;;;;5046577;28;20506;-51
2021/11/03 06:15:24;;;;;;;3.70;3.20;;;10.30;70.70;;;;;;5052223;28;20473;-52
2021/11/03 06:17:51;;;;;;;4.43;2.20;;;10.50;70.40;;;;;;5052475;28;20193;-49
2021/11/03 06:20:17;;;;;;;2.77;2.07;;;10.40;70.10;;;;;;5051477;28;20489;-51
2021/11/03 06:22:42;;;;;;;2.57;2.20;;;10.40;70.20;;;;;;5052502;28;20419;-51
2021/11/03 06:25:12;;;;;;;3.43;2.40;;;10.50;70.00;;;;;;5051913;28;20445;-49
2021/11/03 06:27:38;;;;;;;3.13;1.97;;;10.60;69.80;;;;;;5052003;28;20203;-48
2021/11/03 06:30:06;;;;;;;2.00;1.80;;;10.80;68.90;;;;;;5051416;28;20926;-51
2021/11/03 06:32:32;;;;;;;2.97;2.30;;;11.00;68.60;;;;;;5052180;28;20491;-51
2021/11/03 06:34:57;;;;;;;3.27;2.37;;;11.10;68.00;;;;;;5050155;28;20461;-52
2021/11/03 06:37:24;;;;;;;2.83;2.43;;;11.20;67.40;;;;;;5052140;28;20258;-52
2021/11/03 06:39:49;;;;;;;2.70;2.50;;;11.30;67.10;;;;;;5051216;28;20203;-47
2021/11/03 06:42:15;;;;;;;2.53;2.10;;;11.20;66.50;;;;;;5052065;28;20439;-49
2021/11/03 06:44:41;;;;;;;3.27;2.10;;;11.20;66.70;;;;;;5051632;28;20196;-52
2021/11/03 06:47:06;;;;;;;2.40;2.00;;;11.30;66.00;;;;;;5051726;28;20215;-50
2021/11/03 06:49:32;;;;;;;3.70;2.70;;;11.40;66.60;;;;;;5052127;28;20185;-52
2021/11/03 06:51:58;;;;;;;3.53;2.30;;;11.20;66.10;;;;;;5051113;28;20251;-47
2021/11/03 06:54:24;;;;;;;2.50;2.30;;;11.00;66.60;;;;;;5051741;28;20200;-49
2021/11/03 06:56:51;;;;;;;4.37;3.33;;;10.90;67.30;;;;;;5051328;28;20191;-50
2021/11/03 06:59:18;;;;;;;3.43;2.80;;;10.90;66.90;;;;;;5051222;28;20192;-49
2021/11/03 07:01:44;;;;;;;2.70;1.87;;;10.90;67.00;;;;;;5048701;28;20988;-48
2021/11/03 07:04:11;;;;;;;3.03;1.70;;;11.10;66.70;;;;;;5051764;28;20522;-51
2021/11/03 07:06:37;;;;;;;1.70;1.50;;;11.20;65.80;;;;;;5051434;28;20439;-51
2021/11/03 07:09:03;;;;;;;1.60;1.50;;;10.90;66.10;;;;;;5051216;28;20430;-48
2021/11/03 07:11:29;;;;;;;4.10;1.70;;;10.70;66.50;;;;;;5049463;28;20309;-48
2021/11/03 07:13:56;;;;;;;1.40;1.30;;;10.70;67.20;;;;;;5047402;28;20510;-48
2021/11/03 07:16:22;;;;;;;2.23;1.97;;;11.00;66.60;;;;;;5051266;28;20203;-50
2021/11/03 07:18:47;;;;;;;2.90;2.37;;;11.20;65.40;;;;;;5051067;28;20475;-49
2021/11/03 07:21:13;;;;;;;3.63;1.90;;;11.60;64.70;;;;;;5050578;28;20245;-48
2021/11/03 07:23:39;;;;;;;2.93;1.90;;;11.80;64.00;;;;;;5051678;28;20193;-48
2021/11/03 07:26:05;;;;;;;2.33;2.13;;;11.90;63.30;;;;;;5050688;28;20192;-51
2021/11/03 07:28:30;;;;;;;1.93;1.83;;;11.80;63.50;;;;;;5049751;28;20616;-51
2021/11/03 07:30:56;;;;;;;2.20;2.07;;;11.70;63.40;;;;;;5050405;28;20699;-47
2021/11/03 07:33:22;;;;;;;5.20;3.30;;;11.50;64.30;;;;;;5051268;28;20211;-48
2021/11/03 07:35:48;;;;;;;3.03;2.23;;;11.50;65.00;;;;;;5050881;28;20309;-52
2021/11/03 07:38:14;;;;;;;3.63;2.20;;;11.60;65.40;;;;;;5051158;28;20423;-53
2021/11/03 07:40:53;;;;;;;2.67;2.40;;;11.70;65.80;;;;;;5050266;28;20235;-47
2021/11/03 07:43:20;;;;;;;2.80;2.60;;;11.70;65.50;;;;;;5051236;28;20498;-50
2021/11/03 07:45:48;;;;;;;2.80;2.27;;;11.80;64.70;;;;;;5050440;28;20419;-48
2021/11/03 07:48:14;;;;;;;2.70;2.40;;;11.60;66.20;;;;;;5049884;28;20423;-52
2021/11/03 07:50:49;;;;;;;3.83;2.50;;;11.30;66.10;;;;;;5050321;28;20466;-49
2021/11/03 07:53:15;;;;;;;4.43;3.10;;;11.20;67.30;;;;;;5049528;28;20200;-51
2021/11/03 07:55:45;;;;;;;3.90;2.40;;;11.00;67.90;;;;;;5050612;28;20797;-50
2021/11/03 07:58:16;;;;;;;2.87;2.60;;;11.00;68.10;;;;;;5051391;28;20419;-47
2021/11/03 08:00:42;;;;;;;2.30;2.10;;;11.20;68.00;;;;;;5050243;28;20419;-52
2021/11/03 08:03:08;;;;;;;2.47;2.10;;;11.20;67.30;;;;;;5051066;28;20433;-50
2021/11/03 08:05:34;;;;;;;2.57;1.83;;;11.30;66.40;;;;;;5050216;28;20192;-47
2021/11/03 08:08:04;;;;;;;2.33;1.97;;;11.20;64.90;;;;;;5051160;28;20416;-50
2021/11/03 08:10:30;;;;;;;2.20;1.57;;;11.20;64.70;;;;;;5050341;28;20484;-48
2021/11/03 08:12:57;;;;;;;2.00;1.40;;;11.30;64.20;;;;;;5049307;28;20431;-52
2021/11/03 08:15:25;;;;;;;7.40;4.17;;;11.20;63.90;;;;;;5054359;28;20204;-51
2021/11/03 08:17:52;;;;;;;8.20;4.90;;;11.20;64.50;;;;;;5054731;28;20451;-48
2021/11/03 08:20:22;;;;;;;2.10;1.90;;;11.30;65.90;;;;;;5052317;28;20467;-52
2021/11/03 08:22:48;;;;;;;3.43;2.17;;;11.30;64.70;;;;;;5054874;28;20774;-52
2021/11/03 08:25:14;;;;;;;2.13;1.93;;;11.40;64.20;;;;;;5054172;28;20426;-49
2021/11/03 08:27:40;;;;;;;1.83;1.43;;;11.40;64.10;;;;;;5054532;28;20284;-50
2021/11/03 08:30:09;;;;;;;1.53;1.43;;;11.50;63.00;;;;;;5053645;28;20960;-51
2021/11/03 08:32:41;;;;;;;1.33;1.23;;;11.50;62.40;;;;;;5054715;28;20485;-53
2021/11/03 08:35:09;;;;;;;1.40;1.30;;;11.70;62.20;;;;;;5054071;28;20423;-52
2021/11/03 08:37:38;;;;;;;1.53;1.43;;;11.70;61.70;;;;;;5053142;28;20522;-51
2021/11/03 08:40:07;;;;;;;1.73;1.63;;;11.60;62.20;;;;;;5053507;28;20652;-52
2021/11/03 08:42:33;;;;;;;2.57;1.53;;;11.30;63.30;;;;;;5054373;28;20457;-50
2021/11/03 08:44:58;;;;;;;1.63;1.50;;;11.10;64.60;;;;;;5053761;28;20462;-52
2021/11/03 08:47:24;;;;;;;3.33;1.37;;;11.10;65.10;;;;;;5053141;28;20188;-52
2021/11/03 08:49:51;;;;;;;4.30;1.80;;;11.20;64.20;;;;;;5053210;28;20199;-52
2021/11/03 08:52:18;;;;;;;1.47;1.37;;;11.20;63.70;;;;;;5054305;28;20486;-51
2021/11/03 08:54:49;;;;;;;1.93;1.40;;;11.40;62.70;;;;;;5053569;28;20906;-52
2021/11/03 08:57:16;;;;;;;1.40;1.30;;;11.40;62.40;;;;;;5053873;28;20431;-51
2021/11/03 08:59:42;;;;;;;1.30;1.20;;;11.20;62.00;;;;;;5053388;28;20434;-51
2021/11/03 09:02:08;;;;;;;1.03;1.00;;;11.50;62.90;;;;;;5054152;28;20419;-51
2021/11/03 09:04:35;;;;;;;1.67;1.57;;;11.50;62.40;;;;;;5053969;28;20426;-52
2021/11/03 09:07:03;;;;;;;1.40;1.30;;;11.40;62.40;;;;;;5054020;28;21210;-48
2021/11/03 09:09:30;;;;;;;3.07;1.67;;;11.40;63.10;;;;;;5053984;28;20439;-52
2021/11/03 09:11:56;;;;;;;1.40;1.30;;;11.70;62.60;;;;;;5048212;28;20476;-52
2021/11/03 09:14:22;;;;;;;1.87;1.40;;;11.70;61.70;;;;;;5052186;28;20430;-52
2021/11/03 09:16:49;;;;;;;1.20;1.10;;;11.90;60.60;;;;;;5053307;28;20652;-50
2021/11/03 09:19:15;;;;;;;1.47;1.27;;;12.00;60.20;;;;;;5053720;28;20471;-52
2021/11/03 09:21:41;;;;;;;1.33;1.23;;;12.00;59.40;;;;;;5052727;28;20545;-51
2021/11/03 09:24:06;;;;;;;2.63;1.23;;;12.10;59.90;;;;;;5052773;28;20246;-48
2021/11/03 09:26:33;;;;;;;3.13;1.20;;;12.40;59.20;;;;;;5052987;28;20286;-52
2021/11/03 09:29:03;;;;;;;3.23;1.37;;;12.50;58.60;;;;;;5053584;28;20432;-51
2021/11/03 09:31:30;;;;;;;1.33;1.23;;;12.40;58.60;;;;;;5052664;28;20220;-52
2021/11/03 09:33:57;;;;;;;1.10;1.10;;;12.50;59.10;;;;;;5053650;28;20419;-52
2021/11/03 09:36:24;;;;;;;1.50;1.40;;;12.70;59.40;;;;;;5052814;28;20531;-49
2021/11/03 09:38:50;;;;;;;2.70;1.60;;;12.60;58.90;;;;;;5053234;28;20427;-52
2021/11/03 09:41:22;;;;;;;1.70;1.60;;;12.40;58.90;;;;;;5051322;28;20910;-51
2021/11/03 09:44:23;;;;;;;2.20;1.73;;;12.40;59.50;;;;;;5053326;28;20533;-52
2021/11/03 09:47:00;;;;;;;1.70;1.60;;;12.40;59.50;;;;;;5052426;28;20513;-48
2021/11/03 09:49:39;;;;;;;3.30;1.80;;;12.40;59.70;;;;;;5052626;28;20942;-52
2021/11/03 09:52:17;;;;;;;1.67;1.57;;;12.50;59.50;;;;;;5052891;28;20478;-48
2021/11/03 09:54:49;;;;;;;1.80;1.70;;;12.70;58.60;;;;;;5052274;28;20438;-50
2021/11/03 09:57:40;;;;;;;2.20;1.70;;;12.70;58.30;;;;;;5053121;28;20431;-51
2021/11/03 10:00:16;;;;;;;1.87;1.50;;;12.80;58.30;;;;;;5052096;28;20431;-48
2021/11/03 10:02:50;;;;;;;1.57;1.40;;;12.80;58.00;;;;;;5052832;28;20435;-52
2021/11/03 10:05:30;;;;;;;7.20;2.00;;;13.00;57.50;;;;;;5052411;28;20427;-53
2021/11/03 10:08:24;;;;;;;2.80;1.40;;;13.30;56.70;;;;;;5051237;28;20466;-51
2021/11/03 10:10:57;;;;;;;5.30;1.73;;;13.60;56.60;;;;;;5051423;28;20544;-49
2021/11/03 10:13:22;;;;;;;2.10;1.40;;;13.80;55.00;;;;;;5048063;28;20439;-50
2021/11/03 10:16:03;;;;;;;1.40;1.20;;;14.00;55.70;;;;;;5052198;28;20454;-51
2021/11/03 10:18:36;;;;;;;1.63;1.20;;;14.10;55.10;;;;;;5052339;28;20196;-49
2021/11/03 10:21:14;;;;;;;2.13;1.30;;;14.00;54.80;;;;;;5051920;28;20522;-48
2021/11/03 10:23:58;;;;;;;2.50;1.30;;;14.00;54.80;;;;;;5051287;28;20439;-52
2021/11/03 10:26:27;;;;;;;8.97;4.90;;;14.20;54.80;;;;;;5052034;28;20902;-51
2021/11/03 10:29:40;;;;;;;3.40;2.30;;;14.30;54.70;;;;;;5052229;28;20423;-53
2021/11/03 10:32:09;;;;;;;2.40;1.60;;;14.30;53.90;;;;;;5033165;28;21024;-52
2021/11/03 10:34:34;;;;;;;1.63;1.43;;;14.50;54.30;;;;;;5050537;28;20927;-53
2021/11/03 10:37:15;;;;;;;1.63;1.53;;;14.50;54.00;;;;;;5051809;28;20427;-53
2021/11/03 10:39:59;;;;;;;3.07;1.33;;;14.50;54.20;;;;;;5051537;28;20275;-52
2021/11/03 10:42:31;;;;;;;5.17;1.50;;;14.70;54.20;;;;;;5052447;28;20469;-49
2021/11/03 10:45:15;;;;;;;1.57;1.47;;;14.80;53.70;;;;;;5051659;28;20430;-50
2021/11/03 10:47:44;;;;;;;1.50;1.40;;;14.90;53.60;;;;;;5052366;28;20439;-50
2021/11/03 10:50:23;;;;;;;2.00;1.80;;;14.90;53.20;;;;;;5051076;28;20435;-52
2021/11/03 10:52:54;;;;;;;2.07;1.40;;;15.10;53.20;;;;;;5052045;28;20562;-49
2021/11/03 10:55:43;;;;;;;1.70;1.60;;;15.30;53.40;;;;;;5051323;28;20435;-49
2021/11/03 10:58:11;;;;;;;1.50;1.40;;;15.30;52.80;;;;;;5051828;28;20427;-52
2021/11/03 11:00:40;;;;;;;1.60;1.50;;;15.20;52.80;;;;;;5049278;28;20488;-48
2021/11/03 11:03:20;;;;;;;2.27;1.80;;;15.30;52.80;;;;;;5051815;28;20458;-50
2021/11/03 11:05:51;;;;;;;1.70;1.60;;;15.30;52.70;;;;;;5051422;28;20427;-52
2021/11/03 11:08:23;;;;;;;2.70;1.30;;;15.40;52.60;;;;;;5051593;28;20435;-51
2021/11/03 11:10:58;;;;;;;2.37;1.30;;;15.50;52.80;;;;;;5050853;28;20462;-52
2021/11/03 11:13:28;;;;;;;1.30;1.20;;;15.60;52.10;;;;;;5058218;28;20947;-51
2021/11/03 11:16:07;;;;;;;1.50;1.40;;;15.60;51.50;;;;;;5071344;28;20537;-51
2021/11/03 11:18:34;;;;;;;1.60;1.47;;;15.70;51.10;;;;;;5056945;28;20463;-51
2021/11/03 11:21:06;;;;;;;1.43;1.33;;;15.60;50.60;;;;;;5050694;28;20430;-49
2021/11/03 11:23:56;;;;;;;2.37;1.60;;;15.70;50.50;;;;;;5051535;28;20419;-51
2021/11/03 11:26:46;;;;;;;1.70;1.40;;;15.80;50.70;;;;;;5050299;28;20434;-50
2021/11/03 11:29:29;;;;;;;1.90;1.47;;;15.70;51.70;;;;;;5051204;28;20435;-51
2021/11/03 11:32:29;;;;;;;2.20;1.83;;;15.70;51.20;;;;;;5050720;28;20865;-52
2021/11/03 11:35:45;;;;;;;1.90;1.80;;;15.60;51.70;;;;;;5050835;28;20522;-53
2021/11/03 11:38:20;;;;;;;4.93;1.60;;;15.60;52.30;;;;;;5009090;28;21006;-51
2021/11/03 11:40:54;;;;;;;2.90;1.40;;;15.50;52.60;;;;;;5044003;28;20517;-52
2021/11/03 11:43:27;;;;;;;2.40;1.83;;;15.50;53.20;;;;;;5051213;28;20832;-53
2021/11/03 11:45:53;;;;;;;3.30;1.40;;;15.50;53.00;;;;;;5050154;28;20439;-53
2021/11/03 11:48:29;;;;;;;1.60;1.50;;;15.30;52.00;;;;;;5051352;28;20420;-48
2021/11/03 11:50:58;;;;;;;2.00;1.80;;;15.30;52.30;;;;;;5050102;28;20224;-52
2021/11/03 11:53:58;;;;;;;2.60;2.37;;;15.40;52.40;;;;;;5049511;28;20462;-52
2021/11/03 11:56:28;;;;;;;6.63;4.07;;;15.50;52.70;;;;;;5050390;28;20443;-49
2021/11/03 11:59:21;;;;;;;7.27;4.30;;;15.50;53.10;;;;;;5051070;28;20431;-50
2021/11/03 12:01:46;;;;;;;4.90;3.67;;;15.50;53.60;;;;;;5045167;28;20981;-52
2021/11/03 12:04:21;;;;;;;7.00;3.80;;;15.50;53.90;;;;;;5050966;28;20431;-52
2021/11/03 12:06:53;;;;;;;5.43;4.57;;;15.50;53.80;;;;;;5050347;28;20192;-51
2021/11/03 12:09:39;;;;;;;4.43;3.27;;;15.40;53.60;;;;;;5050666;28;20825;-53
2021/11/03 12:12:08;;;;;;;6.03;2.50;;;15.30;53.90;;;;;;5045856;28;20567;-53
2021/11/03 12:14:45;;;;;;;3.63;3.00;;;15.30;54.10;;;;;;5051082;28;20438;-52
2021/11/03 12:17:42;;;;;;;3.27;2.80;;;15.40;54.40;;;;;;5051055;28;20446;-53
2021/11/03 12:20:26;;;;;;;3.90;2.80;;;15.40;55.00;;;;;;5048793;28;20483;-52
2021/11/03 12:22:56;;;;;;;2.83;2.50;;;15.60;54.70;;;;;;5050971;28;20431;-53
2021/11/03 12:25:24;;;;;;;2.67;2.47;;;15.60;55.20;;;;;;5050443;28;20435;-53
2021/11/03 12:27:52;;;;;;;5.93;2.20;;;15.60;54.50;;;;;;5050712;28;20431;-51
2021/11/03 12:30:18;;;;;;;2.83;2.40;;;15.50;54.30;;;;;;5049793;28;20899;-53
2021/11/03 12:32:44;;;;;;;2.40;2.20;;;15.50;54.20;;;;;;5051006;28;20573;-52
2021/11/03 12:35:18;;;;;;;3.00;2.50;;;15.60;54.00;;;;;;5050299;28;20442;-53
2021/11/03 12:37:47;;;;;;;3.23;2.53;;;15.70;54.50;;;;;;5050782;28;20203;-50
2021/11/03 12:40:36;;;;;;;2.80;2.60;;;15.70;54.50;;;;;;5049578;28;20783;-51
2021/11/03 12:43:08;;;;;;;3.70;3.20;;;15.80;54.50;;;;;;5050855;28;20427;-53
2021/11/03 12:45:51;;;;;;;2.87;2.57;;;15.90;54.40;;;;;;5050180;28;20976;-53
2021/11/03 12:48:29;;;;;;;2.90;2.70;;;16.00;54.80;;;;;;5049211;28;20476;-52
2021/11/03 12:50:55;;;;;;;2.60;2.40;;;16.10;54.90;;;;;;5049519;28;20496;-51
2021/11/03 12:53:24;;;;;;;3.50;3.17;;;16.00;55.20;;;;;;5050859;28;20435;-49
2021/11/03 12:56:09;;;;;;;2.60;2.40;;;16.10;55.00;;;;;;5049985;28;20826;-49
2021/11/03 12:58:48;;;;;;;5.63;2.70;;;16.10;54.90;;;;;;5051443;28;20938;-51
2021/11/03 13:01:28;;;;;;;5.00;3.00;;;16.20;54.70;;;;;;5053060;28;20794;-49